sensor_id;sensor_type;location;lat;lon;timestamp;pressure;altitude;pressure_sealevel;temperature;humidity
64967;BME280;51710;38.732;-121.358;2022-07-10T00:01:35;101205.16;;;35.61;24.55
64967;BME280;51710;38.732;-121.358;2022-07-10T00:04:02;101183.59;;;35.58;25.03
64967;BME280;51710;38.732;-121.358;2022-07-10T00:06:28;101185.03;;;35.55;24.25
64967;BME280;51710;38.732;-121.358;2022-07-10T00:08:55;101189.25;;;35.53;24.81
64967;BME280;51710;38.732;-121.358;2022-07-10T00:11:22;101183.72;;;35.53;24.98
64967;BME280;51710;38.732;-121.358;2022-07-10T00:13:49;101183.19;;;35.51;25.23
64967;BME280;51710;38.732;-121.358;2022-07-10T00:16:16;101174.38;;;35.49;25.39
64967;BME280;51710;38.732;-121.358;2022-07-10T00:18:42;101170.91;;;35.43;26.14
64967;BME280;51710;38.732;-121.358;2022-07-10T00:21:09;101182.50;;;35.45;26.09
64967;BME280;51710;38.732;-121.358;2022-07-10T00:23:36;101175.19;;;35.49;25.64
64967;BME280;51710;38.732;-121.358;2022-07-10T00:26:03;101165.44;;;35.52;26.09
64967;BME280;51710;38.732;-121.358;2022-07-10T00:28:29;101175.41;;;35.53;26.30
64967;BME280;51710;38.732;-121.358;2022-07-10T00:30:56;101167.59;;;35.55;26.27
64967;BME280;51710;38.732;-121.358;2022-07-10T00:33:22;101167.59;;;35.55;26.68
64967;BME280;51710;38.732;-121.358;2022-07-10T00:35:49;101163.69;;;35.56;26.23
64967;BME280;51710;38.732;-121.358;2022-07-10T00:38:17;101165.94;;;35.54;26.18
64967;BME280;51710;38.732;-121.358;2022-07-10T00:40:44;101161.03;;;35.51;26.20
64967;BME280;51710;38.732;-121.358;2022-07-10T00:43:11;101159.00;;;35.43;26.94
64967;BME280;51710;38.732;-121.358;2022-07-10T00:45:38;101150.69;;;35.43;26.63
64967;BME280;51710;38.732;-121.358;2022-07-10T00:48:05;101145.63;;;35.45;26.22
64967;BME280;51710;38.732;-121.358;2022-07-10T00:50:33;101141.53;;;35.42;26.48
64967;BME280;51710;38.732;-121.358;2022-07-10T00:53:00;101146.88;;;35.39;25.69
64967;BME280;51710;38.732;-121.358;2022-07-10T00:55:29;101143.69;;;35.32;25.91
64967;BME280;51710;38.732;-121.358;2022-07-10T00:57:57;101143.81;;;35.27;26.25
64967;BME280;51710;38.732;-121.358;2022-07-10T01:00:28;101140.66;;;35.20;26.82
64967;BME280;51710;38.732;-121.358;2022-07-10T01:02:55;101137.47;;;35.12;26.74
64967;BME280;51710;38.732;-121.358;2022-07-10T01:05:22;101142.09;;;35.03;26.63
64967;BME280;51710;38.732;-121.358;2022-07-10T01:07:49;101141.38;;;34.98;26.95
64967;BME280;51710;38.732;-121.358;2022-07-10T01:10:16;101134.53;;;34.95;27.23
64967;BME280;51710;38.732;-121.358;2022-07-10T01:12:44;101134.59;;;34.90;27.19
64967;BME280;51710;38.732;-121.358;2022-07-10T01:15:12;101128.94;;;34.82;27.26
64967;BME280;51710;38.732;-121.358;2022-07-10T01:17:38;101137.06;;;34.78;27.47
64967;BME280;51710;38.732;-121.358;2022-07-10T01:20:07;101133.19;;;34.93;27.50
64967;BME280;51710;38.732;-121.358;2022-07-10T01:22:35;101126.59;;;35.16;27.68
64967;BME280;51710;38.732;-121.358;2022-07-10T01:25:03;101128.81;;;35.28;26.93
64967;BME280;51710;38.732;-121.358;2022-07-10T01:27:31;101132.34;;;35.20;27.09
64967;BME280;51710;38.732;-121.358;2022-07-10T01:29:59;101137.38;;;35.04;26.79
64967;BME280;51710;38.732;-121.358;2022-07-10T01:32:26;101139.63;;;34.88;27.18
64967;BME280;51710;38.732;-121.358;2022-07-10T01:34:56;101135.00;;;34.70;27.09
64967;BME280;51710;38.732;-121.358;2022-07-10T01:37:24;101135.22;;;34.60;27.01
64967;BME280;51710;38.732;-121.358;2022-07-10T01:39:51;101130.59;;;34.56;26.93
64967;BME280;51710;38.732;-121.358;2022-07-10T01:42:19;101135.41;;;34.50;27.62
64967;BME280;51710;38.732;-121.358;2022-07-10T01:44:46;101127.22;;;34.45;27.69
64967;BME280;51710;38.732;-121.358;2022-07-10T01:47:13;101129.53;;;34.38;27.97
64967;BME280;51710;38.732;-121.358;2022-07-10T01:49:40;101133.28;;;34.29;27.90
64967;BME280;51710;38.732;-121.358;2022-07-10T01:52:07;101137.00;;;34.24;28.18
64967;BME280;51710;38.732;-121.358;2022-07-10T01:54:35;101127.22;;;34.13;28.06
64967;BME280;51710;38.732;-121.358;2022-07-10T01:57:03;101126.28;;;34.04;28.31
64967;BME280;51710;38.732;-121.358;2022-07-10T01:59:30;101126.06;;;34.00;28.61
64967;BME280;51710;38.732;-121.358;2022-07-10T02:01:56;101126.34;;;33.99;28.44
64967;BME280;51710;38.732;-121.358;2022-07-10T02:04:23;101130.75;;;34.00;28.73
64967;BME280;51710;38.732;-121.358;2022-07-10T02:07:09;101127.00;;;34.09;28.69
64967;BME280;51710;38.732;-121.358;2022-07-10T02:09:38;101134.22;;;34.24;29.29
64967;BME280;51710;38.732;-121.358;2022-07-10T02:12:09;101120.19;;;34.34;28.84
64967;BME280;51710;38.732;-121.358;2022-07-10T02:14:38;101135.84;;;34.57;28.78
64967;BME280;51710;38.732;-121.358;2022-07-10T02:17:06;101130.72;;;34.64;28.74
64967;BME280;51710;38.732;-121.358;2022-07-10T02:19:33;101121.78;;;34.67;28.96
64967;BME280;51710;38.732;-121.358;2022-07-10T02:22:01;101127.22;;;34.59;29.39
64967;BME280;51710;38.732;-121.358;2022-07-10T02:24:28;101126.06;;;34.46;29.08
64967;BME280;51710;38.732;-121.358;2022-07-10T02:26:56;101117.72;;;34.33;29.30
64967;BME280;51710;38.732;-121.358;2022-07-10T02:29:23;101118.63;;;34.15;29.22
64967;BME280;51710;38.732;-121.358;2022-07-10T02:31:50;101123.59;;;33.99;29.17
64967;BME280;51710;38.732;-121.358;2022-07-10T02:34:17;101124.13;;;33.82;29.37
64967;BME280;51710;38.732;-121.358;2022-07-10T02:36:44;101121.00;;;33.70;29.15
64967;BME280;51710;38.732;-121.358;2022-07-10T02:39:11;101123.91;;;33.60;29.42
64967;BME280;51710;38.732;-121.358;2022-07-10T02:41:41;101122.16;;;33.51;29.80
64967;BME280;51710;38.732;-121.358;2022-07-10T02:44:07;101121.09;;;33.47;30.20
64967;BME280;51710;38.732;-121.358;2022-07-10T02:46:35;101123.78;;;33.52;30.32
64967;BME280;51710;38.732;-121.358;2022-07-10T02:49:02;101126.03;;;33.50;29.71
64967;BME280;51710;38.732;-121.358;2022-07-10T02:51:30;101126.75;;;33.37;29.70
64967;BME280;51710;38.732;-121.358;2022-07-10T02:53:57;101123.16;;;33.18;29.61
64967;BME280;51710;38.732;-121.358;2022-07-10T02:56:24;101127.75;;;33.03;30.41
64967;BME280;51710;38.732;-121.358;2022-07-10T02:58:50;101128.94;;;32.97;29.97
64967;BME280;51710;38.732;-121.358;2022-07-10T03:01:18;101128.22;;;33.11;30.39
64967;BME280;51710;38.732;-121.358;2022-07-10T03:03:44;101123.72;;;33.15;29.93
64967;BME280;51710;38.732;-121.358;2022-07-10T03:06:12;101137.16;;;33.02;29.97
64967;BME280;51710;38.732;-121.358;2022-07-10T03:08:39;101129.63;;;32.84;30.92
64967;BME280;51710;38.732;-121.358;2022-07-10T03:11:06;101131.59;;;32.60;30.70
64967;BME280;51710;38.732;-121.358;2022-07-10T03:13:33;101129.59;;;32.37;30.59
64967;BME280;51710;38.732;-121.358;2022-07-10T03:16:00;101127.00;;;32.17;31.31
64967;BME280;51710;38.732;-121.358;2022-07-10T03:18:27;101129.94;;;32.02;31.32
64967;BME280;51710;38.732;-121.358;2022-07-10T03:20:53;101136.94;;;31.84;32.14
64967;BME280;51710;38.732;-121.358;2022-07-10T03:23:20;101133.22;;;31.65;32.52
64967;BME280;51710;38.732;-121.358;2022-07-10T03:25:48;101133.59;;;31.49;32.71
64967;BME280;51710;38.732;-121.358;2022-07-10T03:28:15;101131.19;;;31.32;33.14
64967;BME280;51710;38.732;-121.358;2022-07-10T03:30:42;101132.69;;;31.15;33.45
64967;BME280;51710;38.732;-121.358;2022-07-10T03:33:08;101134.69;;;30.99;33.56
64967;BME280;51710;38.732;-121.358;2022-07-10T03:35:36;101131.44;;;30.82;34.14
64967;BME280;51710;38.732;-121.358;2022-07-10T03:38:03;101133.94;;;30.68;34.32
64967;BME280;51710;38.732;-121.358;2022-07-10T03:40:30;101141.66;;;30.56;34.64
64967;BME280;51710;38.732;-121.358;2022-07-10T03:42:58;101146.63;;;30.44;34.97
64967;BME280;51710;38.732;-121.358;2022-07-10T03:45:24;101140.63;;;30.27;35.00
64967;BME280;51710;38.732;-121.358;2022-07-10T03:47:51;101155.44;;;30.11;35.03
64967;BME280;51710;38.732;-121.358;2022-07-10T03:50:19;101147.50;;;29.95;35.27
64967;BME280;51710;38.732;-121.358;2022-07-10T03:52:46;101151.59;;;29.82;35.92
64967;BME280;51710;38.732;-121.358;2022-07-10T03:55:13;101149.69;;;29.72;35.97
64967;BME280;51710;38.732;-121.358;2022-07-10T03:57:40;101147.16;;;29.66;36.21
64967;BME280;51710;38.732;-121.358;2022-07-10T04:00:29;101155.09;;;29.57;36.41
64967;BME280;51710;38.732;-121.358;2022-07-10T04:03:02;101149.59;;;29.47;36.57
64967;BME280;51710;38.732;-121.358;2022-07-10T04:05:30;101143.81;;;29.34;36.25
64967;BME280;51710;38.732;-121.358;2022-07-10T04:07:58;101141.56;;;29.21;36.87
64967;BME280;51710;38.732;-121.358;2022-07-10T04:10:26;101152.47;;;29.06;37.09
64967;BME280;51710;38.732;-121.358;2022-07-10T04:12:53;101163.91;;;28.93;37.12
64967;BME280;51710;38.732;-121.358;2022-07-10T04:15:20;101155.09;;;28.86;37.50
64967;BME280;51710;38.732;-121.358;2022-07-10T04:17:48;101153.44;;;28.79;37.54
64967;BME280;51710;38.732;-121.358;2022-07-10T04:20:18;101162.19;;;28.71;37.48
64967;BME280;51710;38.732;-121.358;2022-07-10T04:22:45;101161.59;;;28.64;37.97
64967;BME280;51710;38.732;-121.358;2022-07-10T04:25:12;101161.00;;;28.57;38.22
64967;BME280;51710;38.732;-121.358;2022-07-10T04:27:39;101161.44;;;28.49;37.67
64967;BME280;51710;38.732;-121.358;2022-07-10T04:30:07;101172.94;;;28.41;38.59
64967;BME280;51710;38.732;-121.358;2022-07-10T04:32:34;101167.38;;;28.31;38.80
64967;BME280;51710;38.732;-121.358;2022-07-10T04:35:01;101173.06;;;28.25;38.85
64967;BME280;51710;38.732;-121.358;2022-07-10T04:37:28;101168.34;;;28.15;38.75
64967;BME280;51710;38.732;-121.358;2022-07-10T04:39:55;101175.97;;;28.08;38.62
64967;BME280;51710;38.732;-121.358;2022-07-10T04:42:21;101183.00;;;27.99;39.17
64967;BME280;51710;38.732;-121.358;2022-07-10T04:44:48;101182.63;;;27.91;39.19
64967;BME280;51710;38.732;-121.358;2022-07-10T04:47:15;101189.63;;;27.82;39.63
64967;BME280;51710;38.732;-121.358;2022-07-10T04:49:42;101186.25;;;27.69;39.31
64967;BME280;51710;38.732;-121.358;2022-07-10T04:52:09;101192.41;;;27.60;39.98
64967;BME280;51710;38.732;-121.358;2022-07-10T04:54:36;101195.06;;;27.50;39.76
64967;BME280;51710;38.732;-121.358;2022-07-10T04:57:03;101195.53;;;27.42;39.87
64967;BME280;51710;38.732;-121.358;2022-07-10T04:59:30;101192.41;;;27.33;40.16
64967;BME280;51710;38.732;-121.358;2022-07-10T05:01:57;101197.22;;;27.26;40.23
64967;BME280;51710;38.732;-121.358;2022-07-10T05:04:24;101208.38;;;27.20;40.48
64967;BME280;51710;38.732;-121.358;2022-07-10T05:06:53;101202.25;;;27.13;40.62
64967;BME280;51710;38.732;-121.358;2022-07-10T05:09:20;101207.91;;;27.06;40.60
64967;BME280;51710;38.732;-121.358;2022-07-10T05:11:47;101212.47;;;27.01;40.78
64967;BME280;51710;38.732;-121.358;2022-07-10T05:14:14;101213.50;;;26.95;40.69
64967;BME280;51710;38.732;-121.358;2022-07-10T05:16:42;101216.69;;;26.87;41.15
64967;BME280;51710;38.732;-121.358;2022-07-10T05:19:09;101222.03;;;26.82;41.24
64967;BME280;51710;38.732;-121.358;2022-07-10T05:21:36;101221.41;;;26.75;41.40
64967;BME280;51710;38.732;-121.358;2022-07-10T05:24:03;101228.72;;;26.69;41.68
64967;BME280;51710;38.732;-121.358;2022-07-10T05:26:30;101230.50;;;26.63;41.60
64967;BME280;51710;38.732;-121.358;2022-07-10T05:28:57;101229.34;;;26.59;41.74
64967;BME280;51710;38.732;-121.358;2022-07-10T05:31:24;101237.47;;;26.54;41.81
64967;BME280;51710;38.732;-121.358;2022-07-10T05:33:50;101235.16;;;26.46;41.88
64967;BME280;51710;38.732;-121.358;2022-07-10T05:36:18;101226.31;;;26.39;42.07
64967;BME280;51710;38.732;-121.358;2022-07-10T05:38:46;101236.31;;;26.34;42.29
64967;BME280;51710;38.732;-121.358;2022-07-10T05:41:12;101221.75;;;26.28;42.07
64967;BME280;51710;38.732;-121.358;2022-07-10T05:43:39;101224.38;;;26.23;42.41
64967;BME280;51710;38.732;-121.358;2022-07-10T05:46:06;101228.09;;;26.17;42.60
64967;BME280;51710;38.732;-121.358;2022-07-10T05:48:33;101235.94;;;26.14;42.86
64967;BME280;51710;38.732;-121.358;2022-07-10T05:51:00;101236.97;;;26.08;43.02
64967;BME280;51710;38.732;-121.358;2022-07-10T05:53:27;101247.78;;;26.03;43.19
64967;BME280;51710;38.732;-121.358;2022-07-10T05:55:54;101250.06;;;25.94;42.90
64967;BME280;51710;38.732;-121.358;2022-07-10T05:58:21;101246.06;;;25.85;43.37
64967;BME280;51710;38.732;-121.358;2022-07-10T06:00:50;101249.50;;;25.81;43.58
64967;BME280;51710;38.732;-121.358;2022-07-10T06:03:18;101253.56;;;25.78;43.53
64967;BME280;51710;38.732;-121.358;2022-07-10T06:05:48;101248.03;;;25.73;43.67
64967;BME280;51710;38.732;-121.358;2022-07-10T06:08:15;101254.19;;;25.69;43.92
64967;BME280;51710;38.732;-121.358;2022-07-10T06:10:41;101247.81;;;25.63;43.92
64967;BME280;51710;38.732;-121.358;2022-07-10T06:13:13;101254.25;;;25.57;44.38
64967;BME280;51710;38.732;-121.358;2022-07-10T06:15:40;101251.41;;;25.52;44.50
64967;BME280;51710;38.732;-121.358;2022-07-10T06:18:07;101259.50;;;25.47;44.55
64967;BME280;51710;38.732;-121.358;2022-07-10T06:20:34;101255.84;;;25.41;44.40
64967;BME280;51710;38.732;-121.358;2022-07-10T06:23:01;101253.22;;;25.35;44.47
64967;BME280;51710;38.732;-121.358;2022-07-10T06:25:28;101253.09;;;25.30;44.74
64967;BME280;51710;38.732;-121.358;2022-07-10T06:27:56;101254.91;;;25.24;44.83
64967;BME280;51710;38.732;-121.358;2022-07-10T06:30:23;101253.63;;;25.15;44.72
64967;BME280;51710;38.732;-121.358;2022-07-10T06:32:50;101249.94;;;25.10;44.83
64967;BME280;51710;38.732;-121.358;2022-07-10T06:35:17;101260.75;;;25.05;44.97
64967;BME280;51710;38.732;-121.358;2022-07-10T06:37:44;101252.44;;;25.00;45.03
64967;BME280;51710;38.732;-121.358;2022-07-10T06:40:14;101261.09;;;24.97;45.23
64967;BME280;51710;38.732;-121.358;2022-07-10T06:42:40;101256.34;;;24.92;45.21
64967;BME280;51710;38.732;-121.358;2022-07-10T06:45:07;101256.50;;;24.86;45.51
64967;BME280;51710;38.732;-121.358;2022-07-10T06:47:35;101270.44;;;24.78;45.55
64967;BME280;51710;38.732;-121.358;2022-07-10T06:50:20;101267.84;;;24.71;45.66
64967;BME280;51710;38.732;-121.358;2022-07-10T06:52:48;101271.25;;;24.67;45.73
64967;BME280;51710;38.732;-121.358;2022-07-10T06:55:16;101257.53;;;24.62;45.89
64967;BME280;51710;38.732;-121.358;2022-07-10T06:57:42;101262.25;;;24.55;46.20
64967;BME280;51710;38.732;-121.358;2022-07-10T07:00:10;101261.06;;;24.50;46.11
64967;BME280;51710;38.732;-121.358;2022-07-10T07:02:39;101263.66;;;24.45;45.90
64967;BME280;51710;38.732;-121.358;2022-07-10T07:05:07;101257.25;;;24.40;46.21
64967;BME280;51710;38.732;-121.358;2022-07-10T07:07:36;101271.59;;;24.35;46.20
64967;BME280;51710;38.732;-121.358;2022-07-10T07:10:04;101261.38;;;24.31;46.47
64967;BME280;51710;38.732;-121.358;2022-07-10T07:12:32;101270.25;;;24.26;46.41
64967;BME280;51710;38.732;-121.358;2022-07-10T07:15:00;101266.09;;;24.24;46.42
64967;BME280;51710;38.732;-121.358;2022-07-10T07:17:28;101270.38;;;24.20;46.47
64967;BME280;51710;38.732;-121.358;2022-07-10T07:20:12;101273.16;;;24.13;46.64
64967;BME280;51710;38.732;-121.358;2022-07-10T07:22:57;101273.28;;;24.07;46.68
64967;BME280;51710;38.732;-121.358;2022-07-10T07:25:39;101273.13;;;24.02;46.66
64967;BME280;51710;38.732;-121.358;2022-07-10T07:28:08;101267.31;;;23.98;46.78
64967;BME280;51710;38.732;-121.358;2022-07-10T07:30:42;101264.44;;;23.93;46.86
64967;BME280;51710;38.732;-121.358;2022-07-10T07:33:08;101263.22;;;23.89;47.05
64967;BME280;51710;38.732;-121.358;2022-07-10T07:35:35;101261.22;;;23.85;46.94
64967;BME280;51710;38.732;-121.358;2022-07-10T07:38:03;101264.63;;;23.80;47.18
64967;BME280;51710;38.732;-121.358;2022-07-10T07:40:32;101257.16;;;23.76;47.36
64967;BME280;51710;38.732;-121.358;2022-07-10T07:42:58;101254.91;;;23.73;47.36
64967;BME280;51710;38.732;-121.358;2022-07-10T07:45:26;101259.97;;;23.69;47.35
64967;BME280;51710;38.732;-121.358;2022-07-10T07:47:57;101262.31;;;23.66;47.33
64967;BME280;51710;38.732;-121.358;2022-07-10T07:50:36;101259.81;;;23.64;47.29
64967;BME280;51710;38.732;-121.358;2022-07-10T07:53:04;101264.66;;;23.62;47.66
64967;BME280;51710;38.732;-121.358;2022-07-10T07:55:33;101263.22;;;23.60;47.68
64967;BME280;51710;38.732;-121.358;2022-07-10T07:58:01;101264.97;;;23.54;47.63
64967;BME280;51710;38.732;-121.358;2022-07-10T08:00:29;101263.78;;;23.50;47.66
64967;BME280;51710;38.732;-121.358;2022-07-10T08:02:57;101264.22;;;23.47;47.90
64967;BME280;51710;38.732;-121.358;2022-07-10T08:05:24;101267.41;;;23.44;47.89
64967;BME280;51710;38.732;-121.358;2022-07-10T08:07:57;101263.47;;;23.40;47.86
64967;BME280;51710;38.732;-121.358;2022-07-10T08:10:37;101260.13;;;23.38;47.94
64967;BME280;51710;38.732;-121.358;2022-07-10T08:13:04;101257.88;;;23.35;47.85
64967;BME280;51710;38.732;-121.358;2022-07-10T08:15:30;101253.94;;;23.31;48.23
64967;BME280;51710;38.732;-121.358;2022-07-10T08:17:58;101255.44;;;23.27;48.18
64967;BME280;51710;38.732;-121.358;2022-07-10T08:20:26;101254.22;;;23.23;48.29
64967;BME280;51710;38.732;-121.358;2022-07-10T08:22:53;101246.78;;;23.18;48.36
64967;BME280;51710;38.732;-121.358;2022-07-10T08:25:21;101255.34;;;23.15;48.49
64967;BME280;51710;38.732;-121.358;2022-07-10T08:27:48;101255.81;;;23.12;48.52
64967;BME280;51710;38.732;-121.358;2022-07-10T08:30:15;101250.00;;;23.09;48.59
64967;BME280;51710;38.732;-121.358;2022-07-10T08:32:42;101254.59;;;23.08;48.55
64967;BME280;51710;38.732;-121.358;2022-07-10T08:35:10;101248.22;;;23.03;48.53
64967;BME280;51710;38.732;-121.358;2022-07-10T08:37:42;101246.75;;;23.00;48.62
64967;BME280;51710;38.732;-121.358;2022-07-10T08:40:10;101250.97;;;22.96;48.90
64967;BME280;51710;38.732;-121.358;2022-07-10T08:42:42;101251.44;;;22.93;48.89
64967;BME280;51710;38.732;-121.358;2022-07-10T08:45:12;101251.03;;;22.90;48.94
64967;BME280;51710;38.732;-121.358;2022-07-10T08:47:40;101259.66;;;22.87;49.06
64967;BME280;51710;38.732;-121.358;2022-07-10T08:50:18;101252.78;;;22.84;49.13
64967;BME280;51710;38.732;-121.358;2022-07-10T08:53:08;101252.16;;;22.82;49.12
64967;BME280;51710;38.732;-121.358;2022-07-10T08:55:36;101254.50;;;22.79;49.27
64967;BME280;51710;38.732;-121.358;2022-07-10T08:58:04;101251.00;;;22.72;49.45
64967;BME280;51710;38.732;-121.358;2022-07-10T09:00:31;101244.22;;;22.63;49.48
64967;BME280;51710;38.732;-121.358;2022-07-10T09:02:58;101241.34;;;22.58;49.68
64967;BME280;51710;38.732;-121.358;2022-07-10T09:05:26;101249.91;;;22.55;49.85
64967;BME280;51710;38.732;-121.358;2022-07-10T09:07:54;101251.19;;;22.52;49.80
64967;BME280;51710;38.732;-121.358;2022-07-10T09:10:25;101256.00;;;22.50;49.98
64967;BME280;51710;38.732;-121.358;2022-07-10T09:13:00;101246.84;;;22.45;50.04
64967;BME280;51710;38.732;-121.358;2022-07-10T09:15:30;101249.78;;;22.43;50.36
64967;BME280;51710;38.732;-121.358;2022-07-10T09:18:05;101248.09;;;22.42;50.30
64967;BME280;51710;38.732;-121.358;2022-07-10T09:20:36;101250.25;;;22.40;50.35
64967;BME280;51710;38.732;-121.358;2022-07-10T09:23:17;101252.56;;;22.37;50.24
64967;BME280;51710;38.732;-121.358;2022-07-10T09:25:46;101245.97;;;22.26;50.59
64967;BME280;51710;38.732;-121.358;2022-07-10T09:28:21;101245.81;;;22.14;50.83
64967;BME280;51710;38.732;-121.358;2022-07-10T09:30:48;101249.44;;;22.08;50.84
64967;BME280;51710;38.732;-121.358;2022-07-10T09:33:25;101241.75;;;22.05;50.87
64967;BME280;51710;38.732;-121.358;2022-07-10T09:41:29;101238.41;;;22.03;51.10
64967;BME280;51710;38.732;-121.358;2022-07-10T09:46:30;101242.16;;;22.02;51.22
64967;BME280;51710;38.732;-121.358;2022-07-10T09:49:08;101246.97;;;22.00;51.32
64967;BME280;51710;38.732;-121.358;2022-07-10T09:54:08;101240.13;;;21.98;51.33
64967;BME280;51710;38.732;-121.358;2022-07-10T09:56:46;101245.53;;;21.98;51.27
64967;BME280;51710;38.732;-121.358;2022-07-10T09:59:16;101248.88;;;21.93;51.51
64967;BME280;51710;38.732;-121.358;2022-07-10T10:01:50;101250.19;;;21.91;51.43
64967;BME280;51710;38.732;-121.358;2022-07-10T10:04:19;101246.00;;;21.88;51.58
64967;BME280;51710;38.732;-121.358;2022-07-10T10:06:53;101255.41;;;21.86;51.55
64967;BME280;51710;38.732;-121.358;2022-07-10T10:12:06;101251.94;;;21.66;51.79
64967;BME280;51710;38.732;-121.358;2022-07-10T10:14:35;101249.94;;;21.48;51.92
64967;BME280;51710;38.732;-121.358;2022-07-10T10:17:04;101251.66;;;21.36;52.53
64967;BME280;51710;38.732;-121.358;2022-07-10T10:19:33;101245.03;;;21.32;52.70
64967;BME280;51710;38.732;-121.358;2022-07-10T10:22:19;101251.47;;;21.31;52.76
64967;BME280;51710;38.732;-121.358;2022-07-10T10:24:48;101245.03;;;21.32;52.74
64967;BME280;51710;38.732;-121.358;2022-07-10T10:27:16;101242.91;;;21.34;52.56
64967;BME280;51710;38.732;-121.358;2022-07-10T10:29:45;101244.59;;;21.35;52.75
64967;BME280;51710;38.732;-121.358;2022-07-10T10:32:14;101246.31;;;21.23;52.67
64967;BME280;51710;38.732;-121.358;2022-07-10T10:34:47;101249.69;;;21.05;53.17
64967;BME280;51710;38.732;-121.358;2022-07-10T10:37:44;101249.03;;;20.90;53.32
64967;BME280;51710;38.732;-121.358;2022-07-10T10:40:33;101248.66;;;20.87;53.46
64967;BME280;51710;38.732;-121.358;2022-07-10T10:43:19;101247.63;;;20.88;53.41
64967;BME280;51710;38.732;-121.358;2022-07-10T10:45:48;101245.53;;;20.90;53.74
64967;BME280;51710;38.732;-121.358;2022-07-10T10:48:16;101249.88;;;20.91;53.67
64967;BME280;51710;38.732;-121.358;2022-07-10T10:50:51;101241.13;;;20.89;53.65
64967;BME280;51710;38.732;-121.358;2022-07-10T10:53:25;101245.97;;;20.87;53.37
64967;BME280;51710;38.732;-121.358;2022-07-10T10:58:45;101244.69;;;20.89;53.51
64967;BME280;51710;38.732;-121.358;2022-07-10T11:04:13;101251.81;;;20.71;54.13
64967;BME280;51710;38.732;-121.358;2022-07-10T11:06:45;101257.41;;;20.63;54.23
64967;BME280;51710;38.732;-121.358;2022-07-10T11:09:34;101253.69;;;20.51;53.99
64967;BME280;51710;38.732;-121.358;2022-07-10T11:12:11;101245.59;;;20.38;54.48
64967;BME280;51710;38.732;-121.358;2022-07-10T11:14:45;101252.66;;;20.26;55.08
64967;BME280;51710;38.732;-121.358;2022-07-10T11:17:15;101250.13;;;20.17;55.23
64967;BME280;51710;38.732;-121.358;2022-07-10T11:19:42;101244.28;;;20.07;55.32
64967;BME280;51710;38.732;-121.358;2022-07-10T11:22:22;101246.13;;;19.94;55.91
64967;BME280;51710;38.732;-121.358;2022-07-10T11:28:08;101257.97;;;19.86;56.14
64967;BME280;51710;38.732;-121.358;2022-07-10T11:30:45;101263.34;;;19.80;56.39
64967;BME280;51710;38.732;-121.358;2022-07-10T11:33:13;101261.66;;;19.72;56.46
64967;BME280;51710;38.732;-121.358;2022-07-10T11:35:44;101260.81;;;19.72;56.84
64967;BME280;51710;38.732;-121.358;2022-07-10T11:38:12;101266.66;;;19.75;56.81
64967;BME280;51710;38.732;-121.358;2022-07-10T11:40:39;101261.66;;;19.79;56.73
64967;BME280;51710;38.732;-121.358;2022-07-10T11:43:06;101261.06;;;19.77;56.57
64967;BME280;51710;38.732;-121.358;2022-07-10T11:45:36;101260.22;;;19.76;56.58
64967;BME280;51710;38.732;-121.358;2022-07-10T11:48:05;101265.44;;;19.78;57.02
64967;BME280;51710;38.732;-121.358;2022-07-10T11:50:37;101266.06;;;19.73;57.16
64967;BME280;51710;38.732;-121.358;2022-07-10T11:53:04;101270.19;;;19.69;57.29
64967;BME280;51710;38.732;-121.358;2022-07-10T11:55:32;101267.91;;;19.66;57.49
64967;BME280;51710;38.732;-121.358;2022-07-10T11:58:16;101268.28;;;19.63;57.44
64967;BME280;51710;38.732;-121.358;2022-07-10T12:00:44;101264.13;;;19.61;57.41
64967;BME280;51710;38.732;-121.358;2022-07-10T12:03:23;101270.75;;;19.58;57.47
64967;BME280;51710;38.732;-121.358;2022-07-10T12:05:51;101274.91;;;19.54;57.67
64967;BME280;51710;38.732;-121.358;2022-07-10T12:08:18;101265.97;;;19.47;58.24
64967;BME280;51710;38.732;-121.358;2022-07-10T12:10:45;101269.88;;;19.45;57.93
64967;BME280;51710;38.732;-121.358;2022-07-10T12:13:15;101273.63;;;19.44;57.65
64967;BME280;51710;38.732;-121.358;2022-07-10T12:15:44;101268.84;;;19.46;57.96
64967;BME280;51710;38.732;-121.358;2022-07-10T12:18:21;101270.31;;;19.48;57.84
64967;BME280;51710;38.732;-121.358;2022-07-10T12:20:49;101269.91;;;19.51;57.79
64967;BME280;51710;38.732;-121.358;2022-07-10T12:23:19;101268.69;;;19.54;57.80
64967;BME280;51710;38.732;-121.358;2022-07-10T12:25:49;101268.25;;;19.57;57.65
64967;BME280;51710;38.732;-121.358;2022-07-10T12:28:17;101268.69;;;19.60;57.60
64967;BME280;51710;38.732;-121.358;2022-07-10T12:30:48;101273.69;;;19.63;57.65
64967;BME280;51710;38.732;-121.358;2022-07-10T12:33:19;101273.31;;;19.66;57.40
64967;BME280;51710;38.732;-121.358;2022-07-10T12:35:57;101267.47;;;19.69;57.29
64967;BME280;51710;38.732;-121.358;2022-07-10T12:38:27;101269.56;;;19.74;57.50
64967;BME280;51710;38.732;-121.358;2022-07-10T12:41:08;101277.47;;;19.75;57.45
64967;BME280;51710;38.732;-121.358;2022-07-10T12:43:35;101273.31;;;19.79;57.62
64967;BME280;51710;38.732;-121.358;2022-07-10T12:46:14;101272.09;;;19.82;57.57
64967;BME280;51710;38.732;-121.358;2022-07-10T12:49:05;101282.50;;;19.85;57.55
64967;BME280;51710;38.732;-121.358;2022-07-10T12:54:06;101284.13;;;19.79;57.15
64967;BME280;51710;38.732;-121.358;2022-07-10T12:56:37;101287.06;;;19.78;57.32